sensor_id;sensor_type;location;lat;lon;timestamp;temperature;humidity
49829;DHT22;35723;51.194;5.112;2022-12-10T00:00:38;3.20;99.90
49829;DHT22;35723;51.194;5.112;2022-12-10T00:03:04;3.30;99.90
49829;DHT22;35723;51.194;5.112;2022-12-10T00:05:36;3.40;99.90
49829;DHT22;35723;51.194;5.112;2022-12-10T00:08:02;3.30;99.90
49829;DHT22;35723;51.194;5.112;2022-12-10T00:10:27;3.20;99.90
49829;DHT22;35723;51.194;5.112;2022-12-10T00:13:04;3.30;99.90
49829;DHT22;35723;51.194;5.112;2022-12-10T00:19:01;3.40;99.90
49829;DHT22;35723;51.194;5.112;2022-12-10T00:21:31;3.30;99.90
49829;DHT22;35723;51.194;5.112;2022-12-10T00:23:57;3.30;99.90
49829;DHT22;35723;51.194;5.112;2022-12-10T00:26:30;3.30;99.90
49829;DHT22;35723;51.194;5.112;2022-12-10T00:28:56;3.20;99.90
49829;DHT22;35723;51.194;5.112;2022-12-10T00:31:41;3.40;99.90
49829;DHT22;35723;51.194;5.112;2022-12-10T00:37:28;3.30;99.90
49829;DHT22;35723;51.194;5.112;2022-12-10T00:43:21;3.20;99.90
49829;DHT22;35723;51.194;5.112;2022-12-10T00:49:13;3.20;99.90
49829;DHT22;35723;51.194;5.112;2022-12-10T00:55:09;3.10;99.90
49829;DHT22;35723;51.194;5.112;2022-12-10T00:57:35;3.10;99.90
49829;DHT22;35723;51.194;5.112;2022-12-10T01:00:00;3.00;99.90
49829;DHT22;35723;51.194;5.112;2022-12-10T01:02:26;3.10;99.90
49829;DHT22;35723;51.194;5.112;2022-12-10T01:04:53;3.00;99.90
49829;DHT22;35723;51.194;5.112;2022-12-10T01:07:19;3.20;99.90
49829;DHT22;35723;51.194;5.112;2022-12-10T01:09:45;3.10;99.90
49829;DHT22;35723;51.194;5.112;2022-12-10T01:12:10;3.20;99.90
49829;DHT22;35723;51.194;5.112;2022-12-10T01:14:36;3.20;99.90
49829;DHT22;35723;51.194;5.112;2022-12-10T01:17:06;3.10;99.90
49829;DHT22;35723;51.194;5.112;2022-12-10T01:22:35;3.20;99.90
49829;DHT22;35723;51.194;5.112;2022-12-10T01:25:01;3.20;99.90
49829;DHT22;35723;51.194;5.112;2022-12-10T01:27:27;3.10;99.90
49829;DHT22;35723;51.194;5.112;2022-12-10T01:29:52;3.00;99.90
49829;DHT22;35723;51.194;5.112;2022-12-10T01:36:03;3.20;99.90
49829;DHT22;35723;51.194;5.112;2022-12-10T01:38:29;3.10;99.90
49829;DHT22;35723;51.194;5.112;2022-12-10T01:40:55;3.20;99.90
49829;DHT22;35723;51.194;5.112;2022-12-10T01:43:20;3.10;99.90
49829;DHT22;35723;51.194;5.112;2022-12-10T01:45:46;3.10;99.90
49829;DHT22;35723;51.194;5.112;2022-12-10T01:48:12;3.10;99.90
49829;DHT22;35723;51.194;5.112;2022-12-10T01:50:38;3.10;99.90
49829;DHT22;35723;51.194;5.112;2022-12-10T01:53:04;3.00;99.90
49829;DHT22;35723;51.194;5.112;2022-12-10T01:55:45;2.90;99.90
49829;DHT22;35723;51.194;5.112;2022-12-10T01:58:13;2.90;99.90
49829;DHT22;35723;51.194;5.112;2022-12-10T02:00:50;2.80;99.90
49829;DHT22;35723;51.194;5.112;2022-12-10T02:03:35;2.60;99.90
49829;DHT22;35723;51.194;5.112;2022-12-10T02:06:12;2.80;99.90
49829;DHT22;35723;51.194;5.112;2022-12-10T02:12:09;2.90;99.90
49829;DHT22;35723;51.194;5.112;2022-12-10T02:15:30;3.00;99.90
49829;DHT22;35723;51.194;5.112;2022-12-10T02:17:55;2.90;99.90
49829;DHT22;35723;51.194;5.112;2022-12-10T02:20:30;2.70;99.90
49829;DHT22;35723;51.194;5.112;2022-12-10T02:23:04;2.80;99.90
49829;DHT22;35723;51.194;5.112;2022-12-10T02:31:09;2.90;99.90
49829;DHT22;35723;51.194;5.112;2022-12-10T02:33:39;2.80;99.90
49829;DHT22;35723;51.194;5.112;2022-12-10T02:42:37;2.60;99.90
49829;DHT22;35723;51.194;5.112;2022-12-10T02:45:04;2.70;99.90
49829;DHT22;35723;51.194;5.112;2022-12-10T02:47:30;2.70;99.90
49829;DHT22;35723;51.194;5.112;2022-12-10T02:50:03;2.80;99.90
49829;DHT22;35723;51.194;5.112;2022-12-10T02:52:30;3.00;99.90
49829;DHT22;35723;51.194;5.112;2022-12-10T02:54:56;2.90;99.90
49829;DHT22;35723;51.194;5.112;2022-12-10T02:57:59;2.90;99.90
49829;DHT22;35723;51.194;5.112;2022-12-10T03:03:48;2.60;99.90
49829;DHT22;35723;51.194;5.112;2022-12-10T03:12:25;2.70;99.90
49829;DHT22;35723;51.194;5.112;2022-12-10T03:14:58;2.70;99.90
49829;DHT22;35723;51.194;5.112;2022-12-10T03:17:27;2.70;99.90
49829;DHT22;35723;51.194;5.112;2022-12-10T03:19:55;2.60;99.90
49829;DHT22;35723;51.194;5.112;2022-12-10T03:22:24;2.60;99.90
49829;DHT22;35723;51.194;5.112;2022-12-10T03:28:14;2.80;99.90
49829;DHT22;35723;51.194;5.112;2022-12-10T03:33:45;2.60;99.90
49829;DHT22;35723;51.194;5.112;2022-12-10T03:36:12;2.40;99.90
49829;DHT22;35723;51.194;5.112;2022-12-10T03:38:58;2.50;99.90
49829;DHT22;35723;51.194;5.112;2022-12-10T03:41:24;2.60;99.90
49829;DHT22;35723;51.194;5.112;2022-12-10T03:43:54;2.50;99.90
49829;DHT22;35723;51.194;5.112;2022-12-10T03:46:20;2.40;99.90
49829;DHT22;35723;51.194;5.112;2022-12-10T03:51:51;2.40;99.90
49829;DHT22;35723;51.194;5.112;2022-12-10T03:54:17;2.60;99.90
49829;DHT22;35723;51.194;5.112;2022-12-10T03:56:42;2.70;99.90
49829;DHT22;35723;51.194;5.112;2022-12-10T03:59:08;2.60;99.90
49829;DHT22;35723;51.194;5.112;2022-12-10T04:01:39;2.60;99.90
49829;DHT22;35723;51.194;5.112;2022-12-10T04:04:06;2.60;99.90
49829;DHT22;35723;51.194;5.112;2022-12-10T04:06:31;2.60;99.90
49829;DHT22;35723;51.194;5.112;2022-12-10T04:08:57;2.60;99.90
49829;DHT22;35723;51.194;5.112;2022-12-10T04:14:46;2.70;99.90
49829;DHT22;35723;51.194;5.112;2022-12-10T04:17:32;2.60;99.90
49829;DHT22;35723;51.194;5.112;2022-12-10T04:20:00;2.60;99.90
49829;DHT22;35723;51.194;5.112;2022-12-10T04:22:27;2.70;99.90
49829;DHT22;35723;51.194;5.112;2022-12-10T04:25:12;2.60;99.90
49829;DHT22;35723;51.194;5.112;2022-12-10T04:27:56;2.50;99.90
49829;DHT22;35723;51.194;5.112;2022-12-10T04:30:23;2.50;99.90
49829;DHT22;35723;51.194;5.112;2022-12-10T04:35:53;2.40;99.90
49829;DHT22;35723;51.194;5.112;2022-12-10T04:38:19;2.50;99.90
49829;DHT22;35723;51.194;5.112;2022-12-10T04:40:44;2.60;99.90
49829;DHT22;35723;51.194;5.112;2022-12-10T04:43:10;2.60;99.90
49829;DHT22;35723;51.194;5.112;2022-12-10T04:45:37;2.60;99.90
49829;DHT22;35723;51.194;5.112;2022-12-10T04:51:25;2.80;99.90
49829;DHT22;35723;51.194;5.112;2022-12-10T04:57:12;2.60;99.90
49829;DHT22;35723;51.194;5.112;2022-12-10T05:03:02;2.70;99.90
49829;DHT22;35723;51.194;5.112;2022-12-10T05:05:28;2.60;99.90
49829;DHT22;35723;51.194;5.112;2022-12-10T05:07:53;2.60;99.90
49829;DHT22;35723;51.194;5.112;2022-12-10T05:10:22;2.40;99.90
49829;DHT22;35723;51.194;5.112;2022-12-10T05:16:12;2.40;99.90
49829;DHT22;35723;51.194;5.112;2022-12-10T05:18:38;2.60;99.90
49829;DHT22;35723;51.194;5.112;2022-12-10T05:21:07;2.50;99.90
49829;DHT22;35723;51.194;5.112;2022-12-10T05:23:36;2.50;99.90
49829;DHT22;35723;51.194;5.112;2022-12-10T05:26:11;2.50;99.90
49829;DHT22;35723;51.194;5.112;2022-12-10T05:28:39;2.60;99.90
49829;DHT22;35723;51.194;5.112;2022-12-10T05:34:26;2.70;99.90
49829;DHT22;35723;51.194;5.112;2022-12-10T05:36:52;2.80;99.90
49829;DHT22;35723;51.194;5.112;2022-12-10T05:39:17;2.60;99.90
49829;DHT22;35723;51.194;5.112;2022-12-10T05:41:43;2.40;99.90
49829;DHT22;35723;51.194;5.112;2022-12-10T05:44:10;2.50;99.90
49829;DHT22;35723;51.194;5.112;2022-12-10T05:46:36;2.40;99.90
49829;DHT22;35723;51.194;5.112;2022-12-10T05:49:04;2.40;99.90
49829;DHT22;35723;51.194;5.112;2022-12-10T05:51:32;2.50;99.90
49829;DHT22;35723;51.194;5.112;2022-12-10T05:53:59;2.40;99.90
49829;DHT22;35723;51.194;5.112;2022-12-10T05:56:25;2.50;99.90
49829;DHT22;35723;51.194;5.112;2022-12-10T06:01:22;2.40;99.90
49829;DHT22;35723;51.194;5.112;2022-12-10T06:07:10;2.50;99.90
49829;DHT22;35723;51.194;5.112;2022-12-10T06:09:35;2.60;99.90
49829;DHT22;35723;51.194;5.112;2022-12-10T06:12:01;2.50;99.90
49829;DHT22;35723;51.194;5.112;2022-12-10T06:14:27;2.50;99.90
49829;DHT22;35723;51.194;5.112;2022-12-10T06:16:52;2.40;99.90
49829;DHT22;35723;51.194;5.112;2022-12-10T06:19:18;2.50;99.90
49829;DHT22;35723;51.194;5.112;2022-12-10T06:21:44;2.60;99.90
49829;DHT22;35723;51.194;5.112;2022-12-10T06:24:10;2.40;99.90
49829;DHT22;35723;51.194;5.112;2022-12-10T06:26:36;2.50;99.90
49829;DHT22;35723;51.194;5.112;2022-12-10T06:29:01;2.40;99.90
49829;DHT22;35723;51.194;5.112;2022-12-10T06:31:27;2.50;99.90
49829;DHT22;35723;51.194;5.112;2022-12-10T06:33:53;2.40;99.90
49829;DHT22;35723;51.194;5.112;2022-12-10T06:36:19;2.40;99.90
49829;DHT22;35723;51.194;5.112;2022-12-10T06:38:47;2.40;99.90
49829;DHT22;35723;51.194;5.112;2022-12-10T06:41:14;2.40;99.90
49829;DHT22;35723;51.194;5.112;2022-12-10T06:43:40;2.40;99.90
49829;DHT22;35723;51.194;5.112;2022-12-10T06:46:14;2.30;99.90
49829;DHT22;35723;51.194;5.112;2022-12-10T06:48:40;2.30;99.90
49829;DHT22;35723;51.194;5.112;2022-12-10T06:51:07;2.40;99.90
49829;DHT22;35723;51.194;5.112;2022-12-10T06:53:35;2.40;99.90
49829;DHT22;35723;51.194;5.112;2022-12-10T06:56:01;2.50;99.90
49829;DHT22;35723;51.194;5.112;2022-12-10T06:58:31;2.20;99.90
49829;DHT22;35723;51.194;5.112;2022-12-10T07:01:08;2.20;99.90
49829;DHT22;35723;51.194;5.112;2022-12-10T07:03:35;2.40;99.90
49829;DHT22;35723;51.194;5.112;2022-12-10T07:06:01;2.40;99.90
49829;DHT22;35723;51.194;5.112;2022-12-10T07:08:27;2.40;99.90
49829;DHT22;35723;51.194;5.112;2022-12-10T07:10:53;2.40;99.90
49829;DHT22;35723;51.194;5.112;2022-12-10T07:13:19;2.40;99.90
49829;DHT22;35723;51.194;5.112;2022-12-10T07:15:44;2.50;99.90
49829;DHT22;35723;51.194;5.112;2022-12-10T07:18:10;2.30;99.90
49829;DHT22;35723;51.194;5.112;2022-12-10T07:20:36;2.30;99.90
49829;DHT22;35723;51.194;5.112;2022-12-10T07:23:01;2.40;99.90
49829;DHT22;35723;51.194;5.112;2022-12-10T07:43:06;2.00;99.90
49829;DHT22;35723;51.194;5.112;2022-12-10T07:58:59;2.10;99.90
49829;DHT22;35723;51.194;5.112;2022-12-10T08:28:12;1.90;99.90
49829;DHT22;35723;51.194;5.112;2022-12-10T08:47:45;1.80;99.90
49829;DHT22;35723;51.194;5.112;2022-12-10T09:00:28;1.90;99.90
49829;DHT22;35723;51.194;5.112;2022-12-10T09:09:56;1.70;99.90
49829;DHT22;35723;51.194;5.112;2022-12-10T10:49:47;2.00;99.90
49829;DHT22;35723;51.194;5.112;2022-12-10T10:52:37;1.90;99.90
49829;DHT22;35723;51.194;5.112;2022-12-10T10:55:03;1.70;99.90
49829;DHT22;35723;51.194;5.112;2022-12-10T10:57:34;1.70;99.90
49829;DHT22;35723;51.194;5.112;2022-12-10T11:00:23;1.80;99.90
49829;DHT22;35723;51.194;5.112;2022-12-10T11:02:49;2.00;99.90
49829;DHT22;35723;51.194;5.112;2022-12-10T11:05:21;2.00;99.90
49829;DHT22;35723;51.194;5.112;2022-12-10T11:24:32;2.00;99.90
49829;DHT22;35723;51.194;5.112;2022-12-10T11:30:45;2.20;99.90
49829;DHT22;35723;51.194;5.112;2022-12-10T11:33:27;2.10;99.90
49829;DHT22;35723;51.194;5.112;2022-12-10T11:56:47;2.30;99.90
49829;DHT22;35723;51.194;5.112;2022-12-10T13:05:28;2.40;99.90
49829;DHT22;35723;51.194;5.112;2022-12-10T13:10:58;2.20;99.90
49829;DHT22;35723;51.194;5.112;2022-12-10T13:13:34;2.70;99.90
49829;DHT22;35723;51.194;5.112;2022-12-10T13:26:29;2.20;99.90
49829;DHT22;35723;51.194;5.112;2022-12-10T13:35:57;2.40;99.90
